createdAt,value
2023-05-22T00:00:13.556Z,23.07
2023-05-22T00:01:13.372Z,23.07
2023-05-22T00:02:13.418Z,23.07
2023-05-22T00:03:13.459Z,23.06
2023-05-22T00:04:13.576Z,23.06
2023-05-22T00:05:13.503Z,23.05
2023-05-22T00:06:13.460Z,23.05
2023-05-22T00:07:13.482Z,23.05
2023-05-22T00:08:13.470Z,23.04
2023-05-22T00:09:13.506Z,23.05
2023-05-22T00:10:13.523Z,23.04
2023-05-22T00:11:13.540Z,23.04
2023-05-22T00:12:13.503Z,23.04
2023-05-22T00:13:13.499Z,23.03
2023-05-22T00:14:13.781Z,23.03
2023-05-22T00:15:13.525Z,23.02
2023-05-22T00:16:13.539Z,23.03
2023-05-22T00:17:13.722Z,23.02
2023-05-22T00:18:13.543Z,23.02
2023-05-22T00:19:13.827Z,23.02
2023-05-22T00:20:13.561Z,23.01
2023-05-22T00:21:13.566Z,23.01
2023-05-22T00:22:13.567Z,23.01
2023-05-22T00:23:15.601Z,23.01
2023-05-22T00:24:13.596Z,23.00
2023-05-22T00:25:13.609Z,23.00
2023-05-22T00:26:13.605Z,23.00
2023-05-22T00:27:13.629Z,23.00
2023-05-22T00:28:13.618Z,22.99
2023-05-22T00:29:13.603Z,22.99
2023-05-22T00:30:13.618Z,22.99
2023-05-22T00:31:13.696Z,22.99
2023-05-22T00:32:13.627Z,22.99
2023-05-22T00:33:13.622Z,22.98
2023-05-22T00:34:13.666Z,22.99
2023-05-22T00:35:13.626Z,22.98
2023-05-22T00:36:13.623Z,22.97
2023-05-22T00:37:13.629Z,22.97
2023-05-22T00:38:13.636Z,22.97
2023-05-22T00:39:13.674Z,22.97
2023-05-22T00:40:13.641Z,22.97
2023-05-22T00:41:13.634Z,22.97
2023-05-22T00:42:13.639Z,22.97
2023-05-22T00:43:13.666Z,22.96
2023-05-22T00:44:13.649Z,22.96
2023-05-22T00:45:13.642Z,22.95
2023-05-22T00:46:13.662Z,22.95
2023-05-22T00:47:13.657Z,22.95
2023-05-22T00:48:13.637Z,22.95
2023-05-22T00:49:13.729Z,22.95
2023-05-22T00:50:13.640Z,22.94
2023-05-22T00:51:13.654Z,22.94
2023-05-22T00:52:13.647Z,22.94
2023-05-22T00:53:13.669Z,22.94
2023-05-22T00:54:13.664Z,22.94
2023-05-22T00:55:13.662Z,22.93
2023-05-22T00:56:13.645Z,22.93
2023-05-22T00:57:13.660Z,22.93
2023-05-22T00:58:13.667Z,22.93
2023-05-22T00:59:13.687Z,22.93
2023-05-22T01:00:13.701Z,22.92
2023-05-22T01:01:13.665Z,22.92
2023-05-22T01:02:13.747Z,22.91
2023-05-22T01:03:13.758Z,22.91
2023-05-22T01:04:13.762Z,22.91
2023-05-22T01:05:13.685Z,22.91
2023-05-22T01:06:13.688Z,22.91
2023-05-22T01:07:13.679Z,22.91
2023-05-22T01:08:13.676Z,22.91
2023-05-22T01:09:13.692Z,22.90
2023-05-22T01:10:13.695Z,22.91
2023-05-22T01:11:13.681Z,22.90
2023-05-22T01:12:13.691Z,22.91
2023-05-22T01:13:13.707Z,22.90
2023-05-22T01:14:13.695Z,22.90
2023-05-22T01:15:13.698Z,22.89
2023-05-22T01:16:13.752Z,22.90
2023-05-22T01:17:13.733Z,22.90
2023-05-22T01:18:13.830Z,22.89
2023-05-22T01:19:13.775Z,22.89
2023-05-22T01:20:13.714Z,22.90
2023-05-22T01:21:13.718Z,22.90
2023-05-22T01:22:13.724Z,22.90
2023-05-22T01:23:13.752Z,22.89
2023-05-22T01:24:13.758Z,22.89
2023-05-22T01:25:13.785Z,22.88
2023-05-22T01:26:13.735Z,22.89
2023-05-22T01:27:13.755Z,22.89
2023-05-22T01:28:13.739Z,22.89
2023-05-22T01:29:13.775Z,22.88
2023-05-22T01:30:13.754Z,22.89
2023-05-22T01:31:13.767Z,22.88
2023-05-22T01:32:13.785Z,22.87
2023-05-22T01:33:13.851Z,22.88
2023-05-22T01:34:13.821Z,22.87
2023-05-22T01:35:13.779Z,22.87
2023-05-22T01:36:13.784Z,22.87
2023-05-22T01:37:13.777Z,22.87
2023-05-22T01:38:13.788Z,22.87
2023-05-22T01:39:13.828Z,22.87
2023-05-22T01:40:13.826Z,22.87
2023-05-22T01:41:13.797Z,22.87
2023-05-22T01:42:13.792Z,22.87
2023-05-22T01:43:13.821Z,22.87
2023-05-22T01:44:13.805Z,22.86
2023-05-22T01:45:13.800Z,22.86
2023-05-22T01:46:13.820Z,22.86
2023-05-22T01:47:13.842Z,22.87
2023-05-22T01:48:13.859Z,22.86
2023-05-22T01:49:13.827Z,22.86
2023-05-22T01:50:13.820Z,22.86
2023-05-22T01:51:13.831Z,22.86
2023-05-22T01:52:13.827Z,22.86
2023-05-22T01:53:13.847Z,22.85
2023-05-22T01:54:13.846Z,22.85
2023-05-22T01:55:13.844Z,22.85
2023-05-22T01:56:13.851Z,22.85
2023-05-22T01:57:13.859Z,22.84
2023-05-22T01:58:13.836Z,22.85
2023-05-22T01:59:13.865Z,22.85
2023-05-22T02:00:13.855Z,22.85
2023-05-22T02:01:13.862Z,22.85
2023-05-22T02:02:13.888Z,22.85
2023-05-22T02:03:14.046Z,22.84
2023-05-22T02:04:13.876Z,22.85
2023-05-22T02:05:13.877Z,22.85
2023-05-22T02:06:13.889Z,22.84
2023-05-22T02:07:13.905Z,22.84
2023-05-22T02:08:13.894Z,22.83
2023-05-22T02:09:13.896Z,22.84
2023-05-22T02:10:13.899Z,22.83
2023-05-22T02:11:13.901Z,22.83
2023-05-22T02:12:13.903Z,22.83
2023-05-22T02:13:13.911Z,22.83
2023-05-22T02:14:13.926Z,22.83
2023-05-22T02:15:13.938Z,22.83
2023-05-22T02:16:13.951Z,22.83
2023-05-22T02:17:13.957Z,22.82
2023-05-22T02:18:14.010Z,22.82
2023-05-22T02:19:13.953Z,22.82
2023-05-22T02:20:13.965Z,22.82
2023-05-22T02:21:13.987Z,22.81
2023-05-22T02:22:14.037Z,22.82
2023-05-22T02:23:13.992Z,22.81
2023-05-22T02:24:13.986Z,22.82
2023-05-22T02:25:13.992Z,22.81
2023-05-22T02:26:14.110Z,22.81
2023-05-22T02:27:14.001Z,22.81
2023-05-22T02:28:14.018Z,22.81
2023-05-22T02:29:14.028Z,22.80
2023-05-22T02:30:14.018Z,22.80
2023-05-22T02:31:14.065Z,22.80
2023-05-22T02:32:14.052Z,22.81
2023-05-22T02:33:14.055Z,22.81
2023-05-22T02:34:14.067Z,22.80
2023-05-22T02:35:14.072Z,22.81
2023-05-22T02:36:14.084Z,22.80
2023-05-22T02:37:14.071Z,22.80
2023-05-22T02:38:14.086Z,22.79
2023-05-22T02:39:14.167Z,22.80
2023-05-22T02:40:14.116Z,22.79
2023-05-22T02:41:14.098Z,22.80
2023-05-22T02:42:14.121Z,22.79
2023-05-22T02:43:14.137Z,22.79
2023-05-22T02:44:14.140Z,22.79
2023-05-22T02:45:14.143Z,22.79
2023-05-22T02:46:14.194Z,22.79
2023-05-22T02:47:14.173Z,22.79
2023-05-22T02:48:14.199Z,22.79
2023-05-22T02:49:14.189Z,22.79
2023-05-22T02:50:14.221Z,22.78
2023-05-22T02:51:14.190Z,22.79
2023-05-22T02:52:14.190Z,22.79
2023-05-22T02:53:14.236Z,22.78
2023-05-22T02:54:14.221Z,22.78
2023-05-22T02:55:14.221Z,22.77
2023-05-22T02:56:14.235Z,22.78
2023-05-22T02:57:14.253Z,22.78
2023-05-22T02:58:14.241Z,22.78
2023-05-22T02:59:14.250Z,22.78
2023-05-22T03:00:14.343Z,22.78
2023-05-22T03:01:14.290Z,22.77
2023-05-22T03:02:14.276Z,22.78
2023-05-22T03:03:14.390Z,22.77
2023-05-22T03:04:14.349Z,22.77
2023-05-22T03:05:14.381Z,22.76
2023-05-22T03:06:14.327Z,22.77
2023-05-22T03:07:14.358Z,22.77
2023-05-22T03:08:14.363Z,22.77
2023-05-22T03:09:14.390Z,22.76
2023-05-22T03:10:14.485Z,22.76
2023-05-22T03:11:14.414Z,22.76
2023-05-22T03:12:14.422Z,22.77
2023-05-22T03:13:14.459Z,22.76
2023-05-22T03:14:14.451Z,22.76
2023-05-22T03:15:14.461Z,22.75
2023-05-22T03:16:14.553Z,22.76
2023-05-22T03:17:14.504Z,22.75
2023-05-22T03:18:14.530Z,22.76
2023-05-22T03:19:14.616Z,22.76
2023-05-22T03:20:14.571Z,22.76
2023-05-22T03:21:14.572Z,22.76
2023-05-22T03:22:14.606Z,22.76
2023-05-22T03:23:14.608Z,22.75
2023-05-22T03:24:14.614Z,22.75
2023-05-22T03:25:14.665Z,22.76
2023-05-22T03:26:14.684Z,22.75
2023-05-22T03:27:14.704Z,22.75
2023-05-22T03:28:14.705Z,22.75
2023-05-22T03:29:14.747Z,22.75
2023-05-22T03:30:14.769Z,22.76
2023-05-22T03:31:14.775Z,22.75
2023-05-22T03:32:14.840Z,22.75
2023-05-22T03:33:14.814Z,22.75
2023-05-22T03:34:14.806Z,22.75
2023-05-22T03:35:14.803Z,22.76
2023-05-22T03:36:14.812Z,22.76
2023-05-22T03:37:14.851Z,22.76
2023-05-22T03:38:14.882Z,22.75
2023-05-22T03:39:14.908Z,22.75
2023-05-22T03:40:14.926Z,22.75
2023-05-22T03:41:14.896Z,22.76
2023-05-22T03:42:14.921Z,22.75
2023-05-22T03:43:14.930Z,22.76
2023-05-22T03:44:14.927Z,22.77
2023-05-22T03:45:14.945Z,22.76
2023-05-22T03:46:14.959Z,22.77
2023-05-22T03:47:14.967Z,22.77
2023-05-22T03:48:14.986Z,22.77
2023-05-22T03:49:14.981Z,22.77
2023-05-22T03:50:15.010Z,22.78
2023-05-22T03:51:15.021Z,22.77
2023-05-22T03:52:15.017Z,22.78
2023-05-22T03:53:15.038Z,22.79
2023-05-22T03:54:15.058Z,22.78
2023-05-22T03:55:15.047Z,22.79
2023-05-22T03:56:15.065Z,22.79
2023-05-22T03:57:15.059Z,22.79
2023-05-22T03:58:15.086Z,22.80
2023-05-22T03:59:15.084Z,22.80
2023-05-22T04:00:15.105Z,22.81
2023-05-22T04:01:15.134Z,22.81
2023-05-22T04:02:15.128Z,22.81
2023-05-22T04:03:15.208Z,22.82
2023-05-22T04:04:15.090Z,22.82
2023-05-22T04:05:15.148Z,22.82
2023-05-22T04:06:15.078Z,22.83
2023-05-22T04:07:15.051Z,22.85
2023-05-22T04:08:15.064Z,22.84
2023-05-22T04:09:15.067Z,22.86
2023-05-22T04:10:15.030Z,22.86
2023-05-22T04:11:15.036Z,22.86
2023-05-22T04:12:15.028Z,22.87
2023-05-22T04:13:15.030Z,22.87
2023-05-22T04:14:15.013Z,22.88
2023-05-22T04:15:14.996Z,22.89
2023-05-22T04:16:15.077Z,22.89
2023-05-22T04:17:15.013Z,22.89
2023-05-22T04:18:15.001Z,22.90
2023-05-22T04:19:15.016Z,22.90
2023-05-22T04:20:14.967Z,22.91
2023-05-22T04:21:14.991Z,22.92
2023-05-22T04:22:14.983Z,22.92
2023-05-22T04:23:14.954Z,22.93
2023-05-22T04:24:14.947Z,22.94
2023-05-22T04:25:14.941Z,22.95
2023-05-22T04:26:14.922Z,22.96
2023-05-22T04:27:14.941Z,22.96
2023-05-22T04:28:14.927Z,22.97
2023-05-22T04:29:14.913Z,22.98
2023-05-22T04:30:14.908Z,22.98
2023-05-22T04:31:14.918Z,22.99
2023-05-22T04:32:14.903Z,23.00
2023-05-22T04:33:14.941Z,23.01
2023-05-22T04:34:14.867Z,23.02
2023-05-22T04:35:14.858Z,23.02
2023-05-22T04:36:14.852Z,23.04
2023-05-22T04:37:14.873Z,23.03
2023-05-22T04:38:14.854Z,23.06
2023-05-22T04:39:14.846Z,23.06
2023-05-22T04:40:14.823Z,23.07
2023-05-22T04:41:14.814Z,23.08
2023-05-22T04:42:14.824Z,23.09
2023-05-22T04:43:14.819Z,23.10
2023-05-22T04:44:14.818Z,23.11
2023-05-22T04:45:14.822Z,23.11
2023-05-22T04:46:14.827Z,23.14
2023-05-22T04:47:14.819Z,23.17
2023-05-22T04:48:14.864Z,23.24
2023-05-22T04:49:14.922Z,23.32
2023-05-22T04:50:14.980Z,23.40
2023-05-22T04:51:15.031Z,23.48
2023-05-22T04:52:15.102Z,23.60
2023-05-22T04:53:15.144Z,23.78
2023-05-22T04:54:15.209Z,23.94
2023-05-22T04:55:15.252Z,24.04
2023-05-22T04:56:24.336Z,24.03
2023-05-22T04:57:16.310Z,24.00
2023-05-22T04:58:15.305Z,23.97
2023-05-22T04:59:15.276Z,23.93
2023-05-22T05:00:15.277Z,23.93
2023-05-22T05:01:15.300Z,23.93
2023-05-22T05:02:15.264Z,23.95
2023-05-22T05:03:15.310Z,23.98
2023-05-22T05:04:15.226Z,24.01
2023-05-22T05:05:15.236Z,24.04
2023-05-22T05:06:15.207Z,24.07
2023-05-22T05:07:15.230Z,24.10
2023-05-22T05:08:15.210Z,24.13
2023-05-22T05:09:15.189Z,24.17
2023-05-22T05:10:15.213Z,24.19
2023-05-22T05:11:15.291Z,24.21
2023-05-22T05:12:15.309Z,24.23
2023-05-22T05:13:15.299Z,24.25
2023-05-22T05:14:15.341Z,24.28
2023-05-22T05:15:15.350Z,24.29
2023-05-22T05:16:15.386Z,24.31
2023-05-22T05:17:15.861Z,24.30
2023-05-22T05:18:15.903Z,24.28
2023-05-22T05:19:15.529Z,24.18
2023-05-22T05:20:15.474Z,24.07
2023-05-22T05:21:15.511Z,23.92
2023-05-22T05:22:15.601Z,23.83
2023-05-22T05:23:15.625Z,23.76
2023-05-22T05:24:15.694Z,23.67
2023-05-22T05:25:15.720Z,23.64
2023-05-22T05:26:15.767Z,23.58
2023-05-22T05:27:15.845Z,23.55
2023-05-22T05:28:15.859Z,23.50
2023-05-22T05:29:15.881Z,23.48
2023-05-22T05:30:17.189Z,23.51
2023-05-22T05:31:15.968Z,23.55
2023-05-22T05:32:16.192Z,23.57
2023-05-22T05:33:16.117Z,23.56
2023-05-22T05:34:16.104Z,23.56
2023-05-22T05:35:16.152Z,23.55
2023-05-22T05:36:16.175Z,23.55
2023-05-22T05:37:16.237Z,23.55
2023-05-22T05:38:16.374Z,23.56
2023-05-22T05:39:16.354Z,23.58
2023-05-22T05:40:16.398Z,23.58
2023-05-22T05:41:16.418Z,23.59
2023-05-22T05:42:16.484Z,23.57
2023-05-22T05:43:16.515Z,23.53
2023-05-22T05:44:16.560Z,23.55
2023-05-22T05:45:16.559Z,23.58
2023-05-22T05:46:17.443Z,23.66
2023-05-22T05:47:16.685Z,23.67
2023-05-22T05:48:16.749Z,23.72
2023-05-22T05:49:16.816Z,23.81
2023-05-22T05:50:16.835Z,23.87
2023-05-22T05:51:16.971Z,23.92
2023-05-22T05:52:16.948Z,23.97
2023-05-22T05:53:16.987Z,23.99
2023-05-22T05:54:17.029Z,24.01
2023-05-22T05:55:17.087Z,24.04
2023-05-22T05:56:17.106Z,24.06
2023-05-22T05:57:17.130Z,24.06
2023-05-22T05:58:17.183Z,24.07
2023-05-22T05:59:17.210Z,24.06
2023-05-22T06:00:17.287Z,24.04
2023-05-22T06:01:17.284Z,24.06
2023-05-22T06:02:17.405Z,24.05
2023-05-22T06:03:17.532Z,24.06
2023-05-22T06:04:17.439Z,24.08
2023-05-22T06:05:17.505Z,24.09
2023-05-22T06:06:17.490Z,24.09
2023-05-22T06:07:17.522Z,24.10
2023-05-22T06:08:17.570Z,24.09
2023-05-22T06:09:17.564Z,24.11
2023-05-22T06:10:17.610Z,24.12
2023-05-22T06:11:17.637Z,24.13
2023-05-22T06:12:17.650Z,24.12
2023-05-22T06:13:17.681Z,24.14
2023-05-22T06:14:17.741Z,24.17
2023-05-22T06:15:17.740Z,24.19
2023-05-22T06:16:17.798Z,24.20
2023-05-22T06:17:17.780Z,24.23
2023-05-22T06:18:17.869Z,24.24
2023-05-22T06:19:17.867Z,24.22
2023-05-22T06:20:17.840Z,24.25
2023-05-22T06:21:17.859Z,24.26
2023-05-22T06:22:17.971Z,24.25
2023-05-22T06:23:18.421Z,24.26
2023-05-22T06:24:17.922Z,24.29
2023-05-22T06:25:17.926Z,24.30
2023-05-22T06:26:17.972Z,24.32
2023-05-22T06:27:17.987Z,24.31
2023-05-22T06:28:17.977Z,24.34
2023-05-22T06:29:17.996Z,24.31
2023-05-22T06:30:28.189Z,24.32
2023-05-22T06:31:19.017Z,24.33
2023-05-22T06:32:18.134Z,24.32
2023-05-22T06:33:18.028Z,24.31
2023-05-22T06:34:18.014Z,24.29
2023-05-22T06:35:17.969Z,24.28
2023-05-22T06:36:17.970Z,24.28
2023-05-22T06:37:17.953Z,24.32
2023-05-22T06:38:17.967Z,24.35
2023-05-22T06:39:18.058Z,24.37
2023-05-22T06:40:17.938Z,24.34
2023-05-22T06:41:17.930Z,24.33
2023-05-22T06:42:17.926Z,24.30
2023-05-22T06:43:17.907Z,24.29
2023-05-22T06:44:17.939Z,24.29
2023-05-22T06:45:17.907Z,24.28
2023-05-22T06:46:17.946Z,24.28
2023-05-22T06:47:18.392Z,24.28
2023-05-22T06:48:17.891Z,24.27
2023-05-22T06:49:17.873Z,24.27
2023-05-22T06:50:17.876Z,24.27
2023-05-22T06:51:17.926Z,24.27
2023-05-22T06:52:17.890Z,24.28
2023-05-22T06:53:17.859Z,24.28
2023-05-22T06:54:17.832Z,24.30
2023-05-22T06:55:17.825Z,24.31
2023-05-22T06:56:17.818Z,24.33
2023-05-22T06:57:17.910Z,24.34
2023-05-22T06:58:17.844Z,24.36
2023-05-22T06:59:17.795Z,24.37
2023-05-22T07:00:19.074Z,24.37
2023-05-22T07:01:17.909Z,24.37
2023-05-22T07:02:17.913Z,24.39
2023-05-22T07:03:17.899Z,24.39
2023-05-22T07:04:17.901Z,24.39
2023-05-22T07:05:17.981Z,24.40
2023-05-22T07:06:18.069Z,24.41
2023-05-22T07:07:17.878Z,24.42
2023-05-22T07:08:17.884Z,24.42
2023-05-22T07:09:17.849Z,24.43
2023-05-22T07:10:17.852Z,24.45
2023-05-22T07:11:17.873Z,24.46
2023-05-22T07:12:17.867Z,24.48
2023-05-22T07:13:17.901Z,24.51
2023-05-22T07:14:17.887Z,24.52
2023-05-22T07:15:17.927Z,24.53
2023-05-22T07:16:17.991Z,24.56
2023-05-22T07:17:18.407Z,24.57
2023-05-22T07:18:18.029Z,24.56
2023-05-22T07:19:18.152Z,24.57
2023-05-22T07:20:18.122Z,24.57
2023-05-22T07:21:18.133Z,24.59
2023-05-22T07:22:18.190Z,24.59
2023-05-22T07:23:18.231Z,24.60
2023-05-22T07:24:18.299Z,24.61
2023-05-22T07:25:18.315Z,24.59
2023-05-22T07:26:18.344Z,24.61
2023-05-22T07:27:18.416Z,24.61
2023-05-22T07:28:18.398Z,24.60
2023-05-22T07:29:18.481Z,24.62
2023-05-22T07:30:18.486Z,24.61
2023-05-22T07:31:18.669Z,24.61
2023-05-22T07:32:18.602Z,24.62
2023-05-22T07:33:18.894Z,24.64
2023-05-22T07:34:18.699Z,24.65
2023-05-22T07:35:18.812Z,24.67
2023-05-22T07:36:18.833Z,24.69
2023-05-22T07:37:18.881Z,24.71
2023-05-22T07:38:19.421Z,24.72
2023-05-22T07:39:19.010Z,24.73
2023-05-22T07:40:19.076Z,24.74
2023-05-22T07:41:19.127Z,24.75
2023-05-22T07:42:19.196Z,24.76
2023-05-22T07:43:19.449Z,24.77
2023-05-22T07:44:19.314Z,24.77
2023-05-22T07:45:19.385Z,24.78
2023-05-22T07:46:19.485Z,24.78
2023-05-22T07:47:19.571Z,24.77
2023-05-22T07:48:19.925Z,24.77
2023-05-22T07:49:19.709Z,24.77
2023-05-22T07:50:19.700Z,24.76
2023-05-22T07:51:19.723Z,24.77
2023-05-22T07:52:19.797Z,24.78
2023-05-22T07:53:19.932Z,24.79
2023-05-22T07:54:20.415Z,24.79
2023-05-22T07:55:19.982Z,24.80
2023-05-22T07:56:20.034Z,24.81
2023-05-22T07:57:20.100Z,24.81
2023-05-22T07:58:20.415Z,24.82
2023-05-22T07:59:20.228Z,24.82
2023-05-22T08:00:20.426Z,24.83
2023-05-22T08:01:20.348Z,24.84
2023-05-22T08:02:20.483Z,24.82
2023-05-22T08:03:23.136Z,24.83
2023-05-22T08:04:20.531Z,24.83
2023-05-22T08:05:20.539Z,24.84
2023-05-22T08:06:20.442Z,24.87
2023-05-22T08:07:20.409Z,24.89
2023-05-22T08:08:20.445Z,24.89
2023-05-22T08:09:20.419Z,24.90
2023-05-22T08:10:20.408Z,24.90
2023-05-22T08:11:20.404Z,24.91
2023-05-22T08:12:20.383Z,24.92
2023-05-22T08:13:20.365Z,24.94
2023-05-22T08:14:20.396Z,24.94
2023-05-22T08:15:20.403Z,24.96
2023-05-22T08:16:20.384Z,24.96
2023-05-22T08:17:20.418Z,24.97
2023-05-22T08:18:20.433Z,24.97
2023-05-22T08:19:20.371Z,24.96
2023-05-22T08:20:20.358Z,24.96
2023-05-22T08:21:20.831Z,24.91
2023-05-22T08:22:20.311Z,24.91
2023-05-22T08:23:20.433Z,24.89
2023-05-22T08:24:20.284Z,24.89
2023-05-22T08:25:20.312Z,24.87
2023-05-22T08:26:20.319Z,24.87
2023-05-22T08:27:20.253Z,24.85
2023-05-22T08:28:20.272Z,24.83
2023-05-22T08:29:20.247Z,24.82
2023-05-22T08:30:20.237Z,24.81
2023-05-22T08:31:20.330Z,24.80
2023-05-22T08:32:20.210Z,24.77
2023-05-22T08:33:20.266Z,24.76
2023-05-22T08:34:20.434Z,24.75
2023-05-22T08:35:20.338Z,24.74
2023-05-22T08:36:20.404Z,24.73
2023-05-22T08:37:20.474Z,24.68
2023-05-22T08:38:20.544Z,24.66
2023-05-22T08:39:20.934Z,24.66
2023-05-22T08:40:20.645Z,24.67
2023-05-22T08:41:20.716Z,24.67
2023-05-22T08:42:20.779Z,24.67
2023-05-22T08:43:20.826Z,24.67
2023-05-22T08:44:20.904Z,24.66
2023-05-22T08:45:20.940Z,24.65
2023-05-22T08:46:21.042Z,24.64
2023-05-22T08:47:21.142Z,24.62
2023-05-22T08:48:21.063Z,24.63
2023-05-22T08:49:21.763Z,24.61
2023-05-22T08:50:21.145Z,24.61
2023-05-22T08:51:21.150Z,24.61
2023-05-22T08:52:21.192Z,24.60
2023-05-22T08:53:21.229Z,24.59
2023-05-22T08:54:21.212Z,24.59
2023-05-22T08:55:21.272Z,24.58
2023-05-22T08:56:21.296Z,24.58
2023-05-22T08:57:21.323Z,24.58
2023-05-22T08:58:21.283Z,24.58
2023-05-22T08:59:21.459Z,24.58
2023-05-22T09:00:21.321Z,24.58
2023-05-22T09:01:21.388Z,24.58
2023-05-22T09:02:21.365Z,24.58
2023-05-22T09:03:21.870Z,24.58
2023-05-22T09:04:21.423Z,24.58
2023-05-22T09:05:21.459Z,24.58
2023-05-22T09:06:21.484Z,24.58
2023-05-22T09:07:21.498Z,24.57
2023-05-22T09:08:21.585Z,24.56
2023-05-22T09:09:21.582Z,24.57
2023-05-22T09:10:21.597Z,24.56
2023-05-22T09:11:21.642Z,24.57
2023-05-22T09:12:21.670Z,24.56
2023-05-22T09:13:21.695Z,24.57
2023-05-22T09:14:21.764Z,24.57
2023-05-22T09:15:21.813Z,24.57
2023-05-22T09:16:21.885Z,24.57
2023-05-22T09:17:21.937Z,24.59
2023-05-22T09:18:21.957Z,24.58
2023-05-22T09:19:21.985Z,24.60
2023-05-22T09:20:21.972Z,24.59
2023-05-22T09:21:30.190Z,24.60
2023-05-22T09:22:24.425Z,24.61
2023-05-22T09:23:22.163Z,24.62
2023-05-22T09:24:22.204Z,24.61
2023-05-22T09:25:22.248Z,24.61
2023-05-22T09:26:22.297Z,24.62
2023-05-22T09:27:22.323Z,24.59
2023-05-22T09:28:22.356Z,24.60
2023-05-22T09:29:22.377Z,24.64
2023-05-22T09:30:22.481Z,24.70
2023-05-22T09:31:22.578Z,24.77
2023-05-22T09:32:22.581Z,24.86
2023-05-22T09:33:22.975Z,24.91
2023-05-22T09:34:22.641Z,24.94
2023-05-22T09:35:22.708Z,24.99
2023-05-22T09:36:22.742Z,25.02
2023-05-22T09:37:22.772Z,25.04
2023-05-22T09:38:22.949Z,25.07
2023-05-22T09:39:22.844Z,25.08
2023-05-22T09:40:22.917Z,25.11
2023-05-22T09:41:22.961Z,25.13
2023-05-22T09:42:22.935Z,25.14
2023-05-22T09:43:22.967Z,25.16
2023-05-22T09:44:23.005Z,25.17
2023-05-22T09:45:23.021Z,25.18
2023-05-22T09:46:23.101Z,25.19
2023-05-22T09:47:23.077Z,25.20
2023-05-22T09:48:23.479Z,25.22
2023-05-22T09:49:23.138Z,25.23
2023-05-22T09:50:23.140Z,25.24
2023-05-22T09:51:23.164Z,25.26
2023-05-22T09:52:23.179Z,25.26
2023-05-22T09:53:23.211Z,25.27
2023-05-22T09:54:23.231Z,25.28
2023-05-22T09:55:23.248Z,25.30
2023-05-22T09:56:34.813Z,25.31
2023-05-22T09:57:24.273Z,25.32
2023-05-22T09:58:23.256Z,25.33
2023-05-22T09:59:23.283Z,25.35
2023-05-22T10:00:23.237Z,25.38
2023-05-22T10:01:23.251Z,25.41
2023-05-22T10:02:23.268Z,25.41
2023-05-22T10:03:23.507Z,25.42
2023-05-22T10:04:23.322Z,25.44
2023-05-22T10:05:23.219Z,25.47
2023-05-22T10:06:23.201Z,25.48
2023-05-22T10:07:23.198Z,25.51
2023-05-22T10:08:23.175Z,25.52
2023-05-22T10:09:23.230Z,25.52
2023-05-22T10:10:23.177Z,25.53
2023-05-22T10:11:23.175Z,25.55
2023-05-22T10:12:23.151Z,25.57
2023-05-22T10:13:23.161Z,25.58
2023-05-22T10:14:23.135Z,25.57
2023-05-22T10:15:23.155Z,25.57
2023-05-22T10:16:23.156Z,25.58
2023-05-22T10:17:23.145Z,25.58
2023-05-22T10:18:23.119Z,25.58
2023-05-22T10:19:23.525Z,25.58
2023-05-22T10:20:23.167Z,25.58
2023-05-22T10:21:23.174Z,25.58
2023-05-22T10:22:23.198Z,25.59
2023-05-22T10:23:23.573Z,25.59
2023-05-22T10:24:23.974Z,25.60
2023-05-22T10:25:23.236Z,25.59
2023-05-22T10:26:23.250Z,25.61
2023-05-22T10:27:23.304Z,25.61
2023-05-22T10:28:23.297Z,25.61
2023-05-22T10:29:23.473Z,25.61
2023-05-22T10:30:23.318Z,25.61
2023-05-22T10:31:23.341Z,25.61
2023-05-22T10:32:23.426Z,25.60
2023-05-22T10:33:23.706Z,25.58
2023-05-22T10:34:23.425Z,25.58
2023-05-22T10:35:23.425Z,25.58
2023-05-22T10:36:23.425Z,25.58
2023-05-22T10:37:23.461Z,25.58
2023-05-22T10:38:23.517Z,25.57
2023-05-22T10:39:23.613Z,25.58
2023-05-22T10:40:23.544Z,25.57
2023-05-22T10:41:23.552Z,25.57
2023-05-22T10:42:23.570Z,25.56
2023-05-22T10:43:23.604Z,25.57
2023-05-22T10:44:23.702Z,25.57
2023-05-22T10:45:23.659Z,25.57
2023-05-22T10:46:23.736Z,25.57
2023-05-22T10:47:23.713Z,25.57
2023-05-22T10:48:23.696Z,25.57
2023-05-22T10:49:23.725Z,25.57
2023-05-22T10:50:23.730Z,25.59
2023-05-22T10:51:23.784Z,25.59
2023-05-22T10:52:23.779Z,25.60
2023-05-22T10:53:23.805Z,25.60
2023-05-22T10:54:23.800Z,25.61
2023-05-22T10:55:23.910Z,25.61
2023-05-22T10:56:25.430Z,25.61
2023-05-22T10:57:23.862Z,25.61
2023-05-22T10:58:23.878Z,25.61
2023-05-22T10:59:23.883Z,25.60
2023-05-22T11:00:23.910Z,25.60
2023-05-22T11:01:23.931Z,25.59
2023-05-22T11:02:24.087Z,25.59
2023-05-22T11:03:24.017Z,25.59
2023-05-22T11:04:24.034Z,25.60
2023-05-22T11:05:24.099Z,25.58
2023-05-22T11:06:23.988Z,25.60
2023-05-22T11:07:24.023Z,25.63
2023-05-22T11:08:24.041Z,25.64
2023-05-22T11:09:24.032Z,25.65
2023-05-22T11:10:24.104Z,25.67
2023-05-22T11:11:25.079Z,25.67
2023-05-22T11:12:24.073Z,25.68
2023-05-22T11:13:24.676Z,25.68
2023-05-22T11:14:24.121Z,25.68
2023-05-22T11:15:24.113Z,25.67
2023-05-22T11:16:24.146Z,25.65
2023-05-22T11:17:24.254Z,25.62
2023-05-22T11:18:24.537Z,25.58
2023-05-22T11:19:24.380Z,25.55
2023-05-22T11:20:24.216Z,25.51
2023-05-22T11:21:24.252Z,25.47
2023-05-22T11:22:24.282Z,25.45
2023-05-22T11:23:24.305Z,25.43
2023-05-22T11:24:24.322Z,25.42
2023-05-22T11:25:24.325Z,25.40
2023-05-22T11:26:25.626Z,25.37
2023-05-22T11:27:24.435Z,25.35
2023-05-22T11:28:24.345Z,25.35
2023-05-22T11:29:24.342Z,25.33
2023-05-22T11:30:24.324Z,25.32
2023-05-22T11:31:24.425Z,25.30
2023-05-22T11:32:24.334Z,25.29
2023-05-22T11:33:24.662Z,25.28
2023-05-22T11:34:24.285Z,25.25
2023-05-22T11:35:24.297Z,25.25
2023-05-22T11:36:24.308Z,25.24
2023-05-22T11:37:24.263Z,25.22
2023-05-22T11:38:24.271Z,25.22
2023-05-22T11:39:24.261Z,25.23
2023-05-22T11:40:24.253Z,25.22
2023-05-22T11:41:24.229Z,25.20
2023-05-22T11:42:24.264Z,25.20
2023-05-22T11:43:24.316Z,25.20
2023-05-22T11:44:24.213Z,25.19
2023-05-22T11:45:24.223Z,25.18
2023-05-22T11:46:24.275Z,25.18
2023-05-22T11:47:24.250Z,25.18
2023-05-22T11:48:24.208Z,25.18
2023-05-22T11:49:24.178Z,25.18
2023-05-22T11:50:40.317Z,25.17
2023-05-22T11:51:25.204Z,25.17
2023-05-22T11:52:24.166Z,25.16
2023-05-22T11:53:24.183Z,25.17
2023-05-22T11:54:24.142Z,25.16
2023-05-22T11:55:24.148Z,25.16
2023-05-22T11:56:24.190Z,25.16
2023-05-22T11:57:24.144Z,25.16
2023-05-22T11:58:24.145Z,25.16
2023-05-22T11:59:24.219Z,25.15
2023-05-22T12:00:24.135Z,25.14
2023-05-22T12:01:24.114Z,25.14
2023-05-22T12:02:24.152Z,25.13
2023-05-22T12:03:25.753Z,25.13
2023-05-22T12:04:24.150Z,25.13
2023-05-22T12:05:24.168Z,25.13
2023-05-22T12:06:24.271Z,25.13
2023-05-22T12:07:24.243Z,25.13
2023-05-22T12:08:24.510Z,25.13
2023-05-22T12:09:24.321Z,25.12
2023-05-22T12:10:24.323Z,25.10
2023-05-22T12:11:24.376Z,25.09
2023-05-22T12:12:24.396Z,25.09
2023-05-22T12:13:24.438Z,25.08
2023-05-22T12:14:24.495Z,25.07
2023-05-22T12:15:24.651Z,25.07
2023-05-22T12:16:24.577Z,25.06
2023-05-22T12:17:24.599Z,25.05
2023-05-22T12:18:24.657Z,25.05
2023-05-22T12:19:24.691Z,25.05
2023-05-22T12:20:24.694Z,25.05
2023-05-22T12:21:24.752Z,25.05
2023-05-22T12:22:24.820Z,25.05
2023-05-22T12:23:24.833Z,25.04
2023-05-22T12:24:24.880Z,25.04
2023-05-22T12:25:24.959Z,25.04
2023-05-22T12:26:24.951Z,25.04
2023-05-22T12:27:24.994Z,25.04
2023-05-22T12:28:25.041Z,25.03
2023-05-22T12:29:25.074Z,25.03
2023-05-22T12:30:25.134Z,25.03
2023-05-22T12:31:25.233Z,25.03
2023-05-22T12:32:25.414Z,25.05
2023-05-22T12:33:25.226Z,25.05
2023-05-22T12:34:25.339Z,25.05
2023-05-22T12:35:25.313Z,25.06
2023-05-22T12:36:25.361Z,25.06
2023-05-22T12:37:25.458Z,25.07
2023-05-22T12:38:25.453Z,25.06
2023-05-22T12:39:25.483Z,25.06
2023-05-22T12:40:25.524Z,25.06
2023-05-22T12:41:25.570Z,25.06
2023-05-22T12:42:25.621Z,25.06
2023-05-22T12:43:25.657Z,25.05
2023-05-22T12:44:25.729Z,25.05
2023-05-22T12:45:25.749Z,25.05
2023-05-22T12:46:25.857Z,25.05
2023-05-22T12:47:26.246Z,25.05
2023-05-22T12:48:26.540Z,25.05
2023-05-22T12:49:25.907Z,25.06
2023-05-22T12:50:25.961Z,25.05
2023-05-22T12:51:25.982Z,25.05
2023-05-22T12:52:26.033Z,25.05